Accueil
METAR-TAF:

METAR-TAF

Aéroports :

Pompano Beach Airpark

Pompano Beach, Floride, États-Unis

latitude: 26-14-44N, longitude: 080-06-41W, altitude: 6 m

Observation

Le bulletin a été fait il y a 14 minutes, à 08:33 UTC
Vent 7 kt de est/sud-est
Température 26°C
Humidité 84%
Pression 1017 hPa
Visibilité: 16.1 km
Quelques nuages à une hauteur de 2200 ft

METAR: KPMP 290833Z AUTO 11007KT 10SM FEW022 26/23 A3004 RMK AO2 T02610228

Heure: 04:47 (08:47 UTC)


TAF: absent

Observations et prévisions météorologiques de plus de 4000 aéroports (messages METAR et TAF).

Les stations disponibles sont représentées par des disques jaunes et rouges sur la carte.

Passer la souris dessus pour voir le nom de la station.

Cliquer dessus pour voir les observations et prévisions météorologiques.

Pour changer de carte: cliquez sur les boutons verts avec une croix noire pour zoomer, sur le bouton vert avec un tiret pour effectuer un zoom arrière, ou sur les flèches vertes pour les cartes adjacentes.


METAR-TAF: